createdAt,value
2023-03-21T00:01:59.018Z,5.50
2023-03-21T00:04:37.969Z,3.03
2023-03-21T00:07:12.807Z,5.27
2023-03-21T00:09:42.535Z,2.53
2023-03-21T00:12:11.754Z,6.73
2023-03-21T00:14:40.311Z,7.63
2023-03-21T00:17:10.850Z,6.70
2023-03-21T00:19:41.328Z,6.47
2023-03-21T00:22:09.686Z,5.73
2023-03-21T00:24:39.318Z,10.30
2023-03-21T00:27:42.607Z,5.47
2023-03-21T00:29:57.461Z,2.63
2023-03-21T00:32:25.762Z,8.87
2023-03-21T00:35:11.864Z,3.60
2023-03-21T00:37:43.047Z,4.23
2023-03-21T00:40:22.986Z,7.17
2023-03-21T00:42:55.441Z,8.47
2023-03-21T00:45:23.977Z,8.77
2023-03-21T00:47:52.421Z,6.13
2023-03-21T00:50:21.012Z,3.77
2023-03-21T00:52:49.456Z,5.53
2023-03-21T00:55:18.824Z,8.23
2023-03-21T00:57:50.181Z,14.23
2023-03-21T01:00:25.890Z,4.30
2023-03-21T01:03:04.485Z,4.97
2023-03-21T01:05:53.823Z,4.73
2023-03-21T01:08:28.197Z,7.17
2023-03-21T01:11:02.946Z,4.00
2023-03-21T01:13:33.105Z,7.03
2023-03-21T01:16:06.034Z,5.07
2023-03-21T01:18:35.344Z,7.17
2023-03-21T01:21:03.905Z,6.53
2023-03-21T01:23:32.229Z,10.47
2023-03-21T01:26:00.775Z,8.07
2023-03-21T01:28:29.954Z,3.77
2023-03-21T01:30:58.562Z,9.63
2023-03-21T01:33:28.257Z,5.43
2023-03-21T01:36:09.989Z,6.40
2023-03-21T01:38:40.951Z,3.97
2023-03-21T01:41:19.288Z,5.63
2023-03-21T01:43:51.148Z,5.90
2023-03-21T01:46:53.957Z,8.90
2023-03-21T01:49:29.156Z,5.80
2023-03-21T01:52:03.575Z,5.10
2023-03-21T01:54:39.961Z,7.13
2023-03-21T01:57:09.911Z,4.60
2023-03-21T01:59:39.584Z,3.90
2023-03-21T02:02:10.290Z,4.57
2023-03-21T02:04:40.544Z,7.63
2023-03-21T02:07:09.954Z,2.73
2023-03-21T02:09:40.333Z,5.13
2023-03-21T02:12:10.440Z,6.63
2023-03-21T02:14:39.660Z,4.03
2023-03-21T02:17:12.397Z,6.50
2023-03-21T02:20:11.799Z,6.57
2023-03-21T02:22:49.381Z,4.47
2023-03-21T02:25:41.361Z,4.53
2023-03-21T02:28:12.302Z,6.33
2023-03-21T02:30:52.272Z,15.00
2023-03-21T02:33:38.105Z,3.43
2023-03-21T02:36:16.838Z,5.37
2023-03-21T02:38:49.751Z,8.87
2023-03-21T02:41:20.084Z,6.10
2023-03-21T02:43:52.100Z,8.00
2023-03-21T02:46:24.378Z,4.50
2023-03-21T02:48:57.108Z,4.97
2023-03-21T02:51:27.293Z,8.03
2023-03-21T02:54:24.884Z,6.30
2023-03-21T02:56:49.113Z,10.67
2023-03-21T02:59:18.521Z,13.77
2023-03-21T03:01:47.053Z,4.97
2023-03-21T03:04:22.346Z,12.83
2023-03-21T03:07:02.352Z,4.53
2023-03-21T03:09:38.452Z,13.07
2023-03-21T03:12:09.000Z,7.43
2023-03-21T03:15:00.336Z,12.23
2023-03-21T03:17:41.396Z,7.60
2023-03-21T03:20:20.302Z,11.07
2023-03-21T03:22:54.445Z,9.20
2023-03-21T03:25:41.273Z,7.43
2023-03-21T03:28:11.304Z,6.63
2023-03-21T03:30:45.000Z,3.87
2023-03-21T03:33:23.509Z,11.00
2023-03-21T03:36:04.429Z,6.97
2023-03-21T03:38:36.152Z,3.40
2023-03-21T03:41:09.716Z,4.83
2023-03-21T03:43:41.428Z,5.67
2023-03-21T03:46:12.783Z,8.97
2023-03-21T03:48:46.746Z,9.73
2023-03-21T03:51:17.824Z,8.63
2023-03-21T03:53:47.982Z,13.00
2023-03-21T03:56:18.005Z,8.23
2023-03-21T03:58:46.487Z,5.77
2023-03-21T04:01:15.172Z,10.13
2023-03-21T04:03:50.632Z,17.70
2023-03-21T04:06:22.139Z,5.73
2023-03-21T04:08:51.058Z,12.37
2023-03-21T04:11:21.255Z,16.70
2023-03-21T04:13:49.663Z,11.70
2023-03-21T04:16:19.343Z,6.87
2023-03-21T04:18:47.807Z,10.33
2023-03-21T04:21:16.329Z,7.50
2023-03-21T04:23:44.711Z,17.13
2023-03-21T04:26:13.114Z,11.90
2023-03-21T04:28:42.857Z,16.27
2023-03-21T04:31:24.375Z,5.97
2023-03-21T04:33:53.799Z,11.17
2023-03-21T04:36:27.855Z,12.00
2023-03-21T04:38:57.300Z,17.80
2023-03-21T04:41:25.681Z,13.73
2023-03-21T04:43:56.004Z,9.60
2023-03-21T04:46:24.440Z,8.30
2023-03-21T04:48:52.877Z,5.13
2023-03-21T04:51:21.256Z,11.60
2023-03-21T04:53:49.631Z,13.27
2023-03-21T04:56:18.038Z,9.50
2023-03-21T04:58:46.683Z,10.63
2023-03-21T05:01:20.213Z,8.37
2023-03-21T05:03:48.816Z,3.70
2023-03-21T05:06:17.261Z,6.60
2023-03-21T05:08:45.982Z,8.33
2023-03-21T05:11:14.359Z,6.57
2023-03-21T05:13:42.751Z,5.20
2023-03-21T05:16:11.281Z,5.57
2023-03-21T05:18:41.087Z,5.53
2023-03-21T05:21:10.676Z,11.87
2023-03-21T05:23:42.165Z,11.33
2023-03-21T05:26:11.429Z,7.93
2023-03-21T05:28:40.042Z,7.53
2023-03-21T05:31:08.911Z,5.07
2023-03-21T05:33:37.310Z,10.00
2023-03-21T05:36:07.461Z,6.97
2023-03-21T05:38:35.832Z,13.80
2023-03-21T05:41:04.141Z,16.67
2023-03-21T05:43:32.460Z,7.93
2023-03-21T05:46:00.852Z,6.87
2023-03-21T05:48:29.213Z,14.23
2023-03-21T05:50:57.602Z,5.50
2023-03-21T05:53:27.404Z,4.60
2023-03-21T05:55:55.967Z,10.30
2023-03-21T05:58:24.364Z,3.70
2023-03-21T06:00:52.783Z,13.60
2023-03-21T06:03:21.271Z,5.23
2023-03-21T06:05:49.709Z,9.60
2023-03-21T06:08:18.133Z,7.40
2023-03-21T06:10:47.892Z,8.13
2023-03-21T06:13:16.960Z,8.70
2023-03-21T06:15:45.575Z,5.10
2023-03-21T06:18:14.141Z,4.83
2023-03-21T06:20:42.590Z,7.60
2023-03-21T06:23:11.083Z,15.63
2023-03-21T06:25:39.952Z,10.10
2023-03-21T06:28:10.020Z,13.27
2023-03-21T06:30:38.638Z,15.00
2023-03-21T06:33:07.069Z,13.67
2023-03-21T06:35:35.866Z,15.83
2023-03-21T06:38:04.402Z,19.33
2023-03-21T06:40:32.850Z,16.30
2023-03-21T06:43:01.524Z,16.13
2023-03-21T06:45:31.315Z,13.17
2023-03-21T06:47:59.827Z,24.47
2023-03-21T06:50:28.390Z,23.27
2023-03-21T06:52:57.589Z,20.10
2023-03-21T06:55:27.114Z,23.97
2023-03-21T06:57:55.607Z,20.37
2023-03-21T07:00:24.629Z,20.17
2023-03-21T07:02:55.032Z,25.47
2023-03-21T07:05:23.626Z,18.13
2023-03-21T07:07:52.238Z,11.17
2023-03-21T07:10:20.896Z,19.23
2023-03-21T07:12:49.323Z,14.57
2023-03-21T07:15:17.742Z,21.23
2023-03-21T07:17:46.159Z,24.13
2023-03-21T07:20:16.180Z,27.67
2023-03-21T07:22:44.619Z,14.53
2023-03-21T07:25:13.200Z,12.67
2023-03-21T07:27:42.316Z,31.37
2023-03-21T07:30:11.724Z,25.73
2023-03-21T07:32:40.506Z,23.50
2023-03-21T07:35:09.866Z,26.07
2023-03-21T07:37:39.735Z,25.33
2023-03-21T07:40:10.924Z,24.57
2023-03-21T07:42:39.820Z,25.10
2023-03-21T07:45:08.997Z,23.50
2023-03-21T07:47:37.556Z,16.70
2023-03-21T07:50:06.318Z,25.87
2023-03-21T07:52:35.040Z,19.77
2023-03-21T07:55:05.091Z,24.13
2023-03-21T07:57:34.009Z,23.47
2023-03-21T08:00:03.608Z,25.93
2023-03-21T08:02:38.249Z,13.47
2023-03-21T08:05:07.549Z,14.03
2023-03-21T08:07:36.108Z,16.47
2023-03-21T08:10:06.258Z,20.57
2023-03-21T08:12:34.895Z,22.83
2023-03-21T08:15:03.587Z,20.83
2023-03-21T08:17:32.146Z,22.33
2023-03-21T08:20:01.061Z,19.27
2023-03-21T08:22:29.573Z,24.33
2023-03-21T08:24:58.078Z,10.63
2023-03-21T08:27:28.085Z,15.67
2023-03-21T08:29:56.532Z,17.13
2023-03-21T08:32:29.364Z,10.90
2023-03-21T08:34:58.038Z,13.63
2023-03-21T08:37:27.114Z,16.37
2023-03-21T08:39:55.932Z,14.67
2023-03-21T08:42:29.313Z,15.63
2023-03-21T08:44:57.763Z,17.43
2023-03-21T08:47:26.269Z,17.90
2023-03-21T08:49:55.212Z,13.57
2023-03-21T08:52:24.502Z,14.93
2023-03-21T08:54:53.528Z,15.00
2023-03-21T08:57:22.197Z,11.30
2023-03-21T08:59:52.482Z,16.67
2023-03-21T09:02:20.972Z,12.00
2023-03-21T09:04:53.307Z,13.33
2023-03-21T09:07:22.217Z,11.87
2023-03-21T09:10:08.307Z,11.67
2023-03-21T09:12:41.492Z,12.60
2023-03-21T09:15:13.132Z,11.77
2023-03-21T09:17:42.450Z,11.17
2023-03-21T09:20:18.869Z,13.43
2023-03-21T09:22:47.885Z,16.50
2023-03-21T09:25:17.146Z,9.97
2023-03-21T09:27:45.819Z,10.63
2023-03-21T09:30:16.624Z,8.70
2023-03-21T09:32:48.660Z,9.27
2023-03-21T09:35:18.736Z,10.43
2023-03-21T09:37:48.345Z,8.43
2023-03-21T09:40:19.652Z,10.90
2023-03-21T09:42:52.718Z,11.53
2023-03-21T09:45:26.320Z,8.90
2023-03-21T09:47:57.209Z,12.27
2023-03-21T09:50:27.829Z,11.67
2023-03-21T09:52:58.564Z,9.07
2023-03-21T09:55:30.850Z,9.33
2023-03-21T09:58:04.411Z,3.53
2023-03-21T10:00:37.420Z,5.27
2023-03-21T10:03:10.182Z,8.20
2023-03-21T10:05:45.932Z,11.47
2023-03-21T10:08:16.656Z,8.80
2023-03-21T10:10:47.437Z,10.37
2023-03-21T10:13:16.577Z,8.30
2023-03-21T10:15:46.402Z,10.23
2023-03-21T10:18:17.914Z,7.87
2023-03-21T10:20:46.919Z,10.67
2023-03-21T10:23:16.759Z,8.37
2023-03-21T10:25:46.195Z,9.60
2023-03-21T10:28:20.894Z,9.67
2023-03-21T10:30:55.047Z,10.23
2023-03-21T10:33:26.053Z,11.30
2023-03-21T10:35:57.273Z,11.97
2023-03-21T10:38:26.640Z,11.50
2023-03-21T10:40:55.973Z,11.67
2023-03-21T10:43:35.548Z,9.17
2023-03-21T10:46:14.827Z,10.37
2023-03-21T10:48:47.126Z,8.43
2023-03-21T10:51:19.351Z,5.70
2023-03-21T10:53:50.269Z,12.03
2023-03-21T10:56:19.364Z,5.77
2023-03-21T10:58:48.539Z,8.63
2023-03-21T11:01:25.975Z,8.30
2023-03-21T11:03:57.954Z,6.13
2023-03-21T11:06:29.742Z,7.37
2023-03-21T11:08:58.921Z,6.70
2023-03-21T11:11:28.612Z,6.67
2023-03-21T11:14:01.480Z,6.20
2023-03-21T11:16:34.946Z,3.97
2023-03-21T11:19:04.800Z,6.60
2023-03-21T11:21:37.916Z,6.63
2023-03-21T11:24:07.648Z,3.90
2023-03-21T11:26:37.685Z,5.67
2023-03-21T11:29:19.424Z,8.40
2023-03-21T11:31:49.646Z,10.00
2023-03-21T11:34:27.049Z,8.23
2023-03-21T11:36:59.619Z,5.87
2023-03-21T11:39:37.230Z,5.97
2023-03-21T11:42:06.841Z,3.80
2023-03-21T11:44:36.091Z,4.33
2023-03-21T11:47:05.943Z,5.10
2023-03-21T11:49:34.423Z,5.67
2023-03-21T11:52:13.450Z,8.33
2023-03-21T11:54:51.218Z,4.87
2023-03-21T11:57:22.704Z,8.47
2023-03-21T11:59:55.697Z,6.80
2023-03-21T12:02:43.139Z,5.83
2023-03-21T12:05:17.241Z,7.03
2023-03-21T12:07:51.821Z,4.67
2023-03-21T12:10:40.709Z,3.40
2023-03-21T12:13:23.965Z,3.17
2023-03-21T12:15:56.604Z,4.30
2023-03-21T12:18:45.987Z,4.03
2023-03-21T12:21:18.939Z,3.10
2023-03-21T12:23:57.885Z,5.60
2023-03-21T12:26:28.291Z,3.93
2023-03-21T12:29:03.657Z,6.20
2023-03-21T12:31:36.182Z,3.97
2023-03-21T12:34:11.951Z,2.60
2023-03-21T12:36:49.684Z,4.10
2023-03-21T12:39:23.547Z,4.63
2023-03-21T12:41:58.324Z,4.50
2023-03-21T12:44:29.577Z,3.70
2023-03-21T12:47:00.655Z,5.77
2023-03-21T12:49:31.976Z,5.83
2023-03-21T12:52:04.333Z,6.63
2023-03-21T12:54:35.121Z,4.87
2023-03-21T12:57:06.563Z,4.63
2023-03-21T12:59:38.099Z,7.67
2023-03-21T13:02:16.799Z,3.90
2023-03-21T13:04:47.917Z,11.43
2023-03-21T13:07:20.251Z,3.80
2023-03-21T13:09:49.017Z,4.37
2023-03-21T13:12:30.439Z,5.77
2023-03-21T13:15:07.861Z,5.73
2023-03-21T13:17:42.322Z,5.73
2023-03-21T13:20:16.200Z,4.43
2023-03-21T13:22:46.360Z,5.40
2023-03-21T13:25:19.420Z,4.00
2023-03-21T13:27:52.946Z,5.57
2023-03-21T13:30:23.587Z,4.57
2023-03-21T13:32:52.772Z,6.90
2023-03-21T13:35:27.372Z,3.50
2023-03-21T13:37:58.919Z,5.07
2023-03-21T13:40:28.852Z,4.30
2023-03-21T13:42:59.497Z,4.37
2023-03-21T13:45:30.694Z,4.60
2023-03-21T13:47:59.888Z,4.83
2023-03-21T13:50:36.702Z,5.07
2023-03-21T13:53:23.579Z,3.43
2023-03-21T13:56:02.988Z,5.37
2023-03-21T13:58:35.327Z,3.37
2023-03-21T14:01:23.668Z,9.67
2023-03-21T14:03:59.293Z,4.77
2023-03-21T14:06:32.850Z,4.67
2023-03-21T14:09:03.388Z,4.87
2023-03-21T14:11:33.065Z,3.93
2023-03-21T14:14:02.510Z,4.00
2023-03-21T14:16:32.139Z,2.67
2023-03-21T14:19:02.415Z,2.73
2023-03-21T14:21:32.338Z,4.57
2023-03-21T14:24:02.167Z,4.97
2023-03-21T14:26:34.328Z,3.93
2023-03-21T14:29:05.470Z,6.10
2023-03-21T14:31:37.324Z,4.87
2023-03-21T14:34:06.117Z,5.13
2023-03-21T14:36:36.052Z,4.33
2023-03-21T14:39:07.272Z,2.63
2023-03-21T14:41:45.070Z,6.67
2023-03-21T14:44:16.022Z,4.50
2023-03-21T14:46:45.335Z,5.27
2023-03-21T14:49:21.121Z,4.77
2023-03-21T14:51:50.154Z,5.67
2023-03-21T14:54:19.460Z,5.90
2023-03-21T14:56:52.583Z,8.83
2023-03-21T14:59:23.576Z,3.53
2023-03-21T15:01:52.935Z,3.13
2023-03-21T15:04:21.834Z,2.87
2023-03-21T15:06:54.973Z,4.33
2023-03-21T15:09:25.367Z,3.77
2023-03-21T15:11:56.139Z,4.63
2023-03-21T15:14:34.715Z,3.63
2023-03-21T15:17:07.589Z,4.40
2023-03-21T15:19:39.943Z,4.77
2023-03-21T15:22:16.212Z,6.17
2023-03-21T15:24:47.157Z,3.03
2023-03-21T15:27:18.848Z,5.13
2023-03-21T15:29:47.986Z,2.67
2023-03-21T15:32:18.207Z,3.00
2023-03-21T15:34:47.606Z,3.80
2023-03-21T15:37:20.305Z,6.37
2023-03-21T15:39:49.511Z,2.53
2023-03-21T15:42:33.955Z,3.23
2023-03-21T15:45:03.510Z,2.53
2023-03-21T15:47:38.094Z,2.17
2023-03-21T15:50:09.378Z,2.53
2023-03-21T15:52:38.827Z,1.37
2023-03-21T15:55:21.289Z,2.27
2023-03-21T15:57:51.241Z,4.30
2023-03-21T16:00:24.713Z,1.20
2023-03-21T16:02:57.633Z,4.00
2023-03-21T16:05:28.604Z,3.60
2023-03-21T16:08:00.391Z,1.53
2023-03-21T16:10:31.483Z,2.33
2023-03-21T16:13:01.827Z,2.43
2023-03-21T16:15:30.256Z,2.43
2023-03-21T16:18:00.498Z,1.53
2023-03-21T16:20:29.685Z,3.07
2023-03-21T16:22:58.053Z,2.10
2023-03-21T16:25:26.584Z,2.70
2023-03-21T16:27:54.949Z,2.13
2023-03-21T16:30:24.953Z,3.40
2023-03-21T16:32:53.409Z,2.43
2023-03-21T16:35:23.607Z,3.70
2023-03-21T16:37:52.135Z,2.23
2023-03-21T16:40:26.311Z,3.33
2023-03-21T16:42:54.767Z,2.57
2023-03-21T16:45:23.265Z,2.70
2023-03-21T16:47:53.249Z,2.87
2023-03-21T16:50:26.215Z,3.13
2023-03-21T16:52:54.876Z,2.47
2023-03-21T16:55:25.706Z,1.87
2023-03-21T16:57:54.678Z,2.33
2023-03-21T17:00:24.313Z,2.90
2023-03-21T17:02:54.945Z,1.47
2023-03-21T17:05:23.537Z,1.33
2023-03-21T17:07:51.956Z,1.00
2023-03-21T17:10:21.556Z,0.97
2023-03-21T17:12:49.941Z,2.00
2023-03-21T17:15:18.686Z,1.83
2023-03-21T17:17:49.894Z,2.37
2023-03-21T17:20:21.564Z,1.13
2023-03-21T17:22:50.332Z,1.17
2023-03-21T17:25:19.564Z,1.10
2023-03-21T17:27:48.302Z,1.33
2023-03-21T17:30:19.058Z,1.20
2023-03-21T17:32:47.415Z,1.53
2023-03-21T17:35:15.767Z,1.63
2023-03-21T17:37:50.187Z,1.93
2023-03-21T17:40:19.824Z,1.43
2023-03-21T17:42:48.573Z,1.53
2023-03-21T17:45:17.100Z,1.70
2023-03-21T17:47:45.797Z,2.83
2023-03-21T17:50:16.323Z,1.43
2023-03-21T17:52:46.165Z,1.47
2023-03-21T17:55:15.105Z,1.50
2023-03-21T17:57:43.647Z,1.63
2023-03-21T18:00:22.745Z,1.83
2023-03-21T18:02:51.434Z,1.93
2023-03-21T18:05:21.279Z,2.10
2023-03-21T18:08:09.864Z,1.20
2023-03-21T18:10:39.160Z,2.93
2023-03-21T18:13:07.657Z,1.60
2023-03-21T18:15:38.010Z,2.27
2023-03-21T18:18:06.873Z,2.10
2023-03-21T18:20:51.287Z,3.20
2023-03-21T18:23:21.715Z,3.60
2023-03-21T18:25:52.224Z,3.10
2023-03-21T18:28:21.403Z,2.40
2023-03-21T18:31:07.752Z,2.33
2023-03-21T18:33:37.772Z,3.20
2023-03-21T18:36:07.693Z,2.30
2023-03-21T18:38:37.782Z,2.67
2023-03-21T18:41:07.640Z,2.17
2023-03-21T18:46:24.786Z,2.97
2023-03-21T18:48:53.086Z,3.63
2023-03-21T18:51:22.816Z,1.83
2023-03-21T18:53:52.573Z,3.57
2023-03-21T18:57:20.114Z,3.00
2023-03-21T18:59:09.611Z,2.33
2023-03-21T19:01:38.023Z,2.93
2023-03-21T19:04:21.012Z,3.47
2023-03-21T19:06:53.070Z,3.37
2023-03-21T19:09:29.324Z,2.80
2023-03-21T19:11:59.272Z,3.53
2023-03-21T19:14:27.719Z,1.73
2023-03-21T19:19:47.833Z,1.90
2023-03-21T19:22:16.922Z,2.97
2023-03-21T19:24:47.163Z,2.80
2023-03-21T19:27:15.736Z,2.23
2023-03-21T19:29:48.804Z,2.40
2023-03-21T19:32:21.569Z,2.93
2023-03-21T19:34:50.162Z,3.13
2023-03-21T19:37:19.470Z,2.50
2023-03-21T19:39:49.517Z,3.40
2023-03-21T19:42:18.578Z,3.63
2023-03-21T19:44:47.394Z,4.43
2023-03-21T19:47:16.259Z,2.30
2023-03-21T19:52:37.316Z,2.30
2023-03-21T19:55:08.127Z,2.20
2023-03-21T19:57:36.567Z,3.87
2023-03-21T20:00:10.414Z,4.30
2023-03-21T20:02:38.933Z,2.60
2023-03-21T20:05:07.856Z,3.20
2023-03-21T20:07:36.627Z,3.03
2023-03-21T20:10:05.950Z,1.97
2023-03-21T20:12:36.204Z,5.70
2023-03-21T20:15:16.394Z,2.00
2023-03-21T20:17:46.153Z,3.73
2023-03-21T20:20:15.362Z,2.83
2023-03-21T20:23:05.611Z,4.80
2023-03-21T20:25:33.221Z,2.83
2023-03-21T20:28:25.582Z,3.13
2023-03-21T20:30:54.080Z,3.27
2023-03-21T20:33:22.676Z,4.57
2023-03-21T20:38:40.027Z,3.40
2023-03-21T20:41:08.926Z,2.67
2023-03-21T20:46:26.994Z,2.30
2023-03-21T20:48:58.292Z,3.10
2023-03-21T20:54:16.153Z,3.37
2023-03-21T20:56:44.437Z,3.30
2023-03-21T20:59:24.549Z,3.07
2023-03-21T21:01:54.348Z,4.30
2023-03-21T21:04:23.199Z,3.40
2023-03-21T21:06:55.696Z,5.03
2023-03-21T21:09:24.122Z,3.77
2023-03-21T21:12:09.714Z,3.13
2023-03-21T21:14:40.149Z,3.37
2023-03-21T21:17:24.515Z,5.20
2023-03-21T21:19:56.949Z,4.50
2023-03-21T21:22:25.406Z,1.93
2023-03-21T21:24:53.783Z,2.60
2023-03-21T21:27:22.258Z,1.47
2023-03-21T21:29:52.279Z,3.93
2023-03-21T21:32:20.865Z,3.20
2023-03-21T21:34:49.282Z,3.97
2023-03-21T21:37:17.632Z,4.20
2023-03-21T21:39:46.753Z,3.50
2023-03-21T21:42:15.398Z,3.87
2023-03-21T21:44:44.962Z,3.50
2023-03-21T21:47:15.532Z,3.30
2023-03-21T21:49:43.891Z,3.13
2023-03-21T21:52:13.637Z,3.03
2023-03-21T21:54:45.804Z,2.83
2023-03-21T21:57:14.710Z,3.27
2023-03-21T21:59:43.068Z,3.17
2023-03-21T22:02:13.982Z,3.80
2023-03-21T22:04:43.679Z,3.83
2023-03-21T22:07:14.613Z,3.83
2023-03-21T22:09:43.214Z,2.50
2023-03-21T22:12:11.715Z,2.43
2023-03-21T22:14:40.040Z,5.70
2023-03-21T22:17:08.412Z,3.97
2023-03-21T22:19:39.089Z,2.37
2023-03-21T22:22:09.802Z,5.30
2023-03-21T22:24:38.257Z,4.43
2023-03-21T22:27:06.901Z,2.00
2023-03-21T22:29:35.342Z,3.83
2023-03-21T22:32:03.738Z,3.53
2023-03-21T22:34:32.103Z,4.47
2023-03-21T22:37:02.580Z,2.33
2023-03-21T22:39:32.301Z,2.73
2023-03-21T22:42:03.346Z,2.53
2023-03-21T22:44:34.905Z,1.23
2023-03-21T22:47:03.649Z,4.80
2023-03-21T22:49:32.911Z,2.53
2023-03-21T22:52:03.125Z,1.80
2023-03-21T22:54:33.184Z,2.77
2023-03-21T22:57:01.861Z,2.43
2023-03-21T22:59:30.248Z,3.37
2023-03-21T23:01:58.615Z,2.33
2023-03-21T23:04:27.757Z,2.77
2023-03-21T23:06:56.288Z,2.73
2023-03-21T23:09:24.693Z,1.80
2023-03-21T23:11:54.334Z,2.83
2023-03-21T23:14:22.692Z,1.83
2023-03-21T23:16:52.637Z,3.03
2023-03-21T23:19:21.168Z,2.33
2023-03-21T23:21:50.200Z,4.10
2023-03-21T23:24:18.547Z,2.47
2023-03-21T23:26:47.024Z,4.23
2023-03-21T23:29:16.765Z,2.33
2023-03-21T23:31:45.636Z,2.43
2023-03-21T23:34:14.407Z,2.37
2023-03-21T23:36:42.731Z,1.13
2023-03-21T23:39:11.037Z,0.90
2023-03-21T23:41:39.419Z,2.00
2023-03-21T23:44:07.760Z,2.13
2023-03-21T23:46:37.538Z,2.40
2023-03-21T23:49:05.936Z,1.70
2023-03-21T23:51:34.285Z,2.40
2023-03-21T23:54:02.633Z,2.20
2023-03-21T23:56:32.074Z,1.43
2023-03-21T23:59:00.494Z,2.20
